sensor_id;sensor_type;location;lat;lon;timestamp;P1;durP1;ratioP1;P2;durP2;ratioP2
33152;SDS011;19509;43.862;26.176;2023-03-25T00:02:06;1.40;;;1.40;;
33152;SDS011;19509;43.862;26.176;2023-03-25T00:04:32;1.20;;;1.20;;
33152;SDS011;19509;43.862;26.176;2023-03-25T00:06:59;1.20;;;1.20;;
33152;SDS011;19509;43.862;26.176;2023-03-25T00:09:25;1.50;;;1.50;;
33152;SDS011;19509;43.862;26.176;2023-03-25T00:11:51;1.57;;;1.57;;
33152;SDS011;19509;43.862;26.176;2023-03-25T00:14:17;1.40;;;1.40;;
33152;SDS011;19509;43.862;26.176;2023-03-25T00:16:43;1.30;;;1.30;;
33152;SDS011;19509;43.862;26.176;2023-03-25T00:19:15;1.30;;;1.30;;
33152;SDS011;19509;43.862;26.176;2023-03-25T00:21:41;1.20;;;1.20;;
33152;SDS011;19509;43.862;26.176;2023-03-25T00:24:10;1.30;;;1.30;;
33152;SDS011;19509;43.862;26.176;2023-03-25T00:26:48;1.20;;;1.20;;
33152;SDS011;19509;43.862;26.176;2023-03-25T00:29:14;1.20;;;1.20;;
33152;SDS011;19509;43.862;26.176;2023-03-25T00:31:41;1.33;;;1.33;;
33152;SDS011;19509;43.862;26.176;2023-03-25T00:34:07;1.30;;;1.30;;
33152;SDS011;19509;43.862;26.176;2023-03-25T00:36:33;1.30;;;1.30;;
33152;SDS011;19509;43.862;26.176;2023-03-25T00:39:05;1.20;;;1.20;;
33152;SDS011;19509;43.862;26.176;2023-03-25T00:41:32;1.40;;;1.40;;
33152;SDS011;19509;43.862;26.176;2023-03-25T00:44:00;1.20;;;1.20;;
33152;SDS011;19509;43.862;26.176;2023-03-25T00:46:29;1.20;;;1.20;;
33152;SDS011;19509;43.862;26.176;2023-03-25T00:48:56;1.50;;;1.50;;
33152;SDS011;19509;43.862;26.176;2023-03-25T00:51:22;1.37;;;1.37;;
33152;SDS011;19509;43.862;26.176;2023-03-25T00:53:57;1.63;;;1.63;;
33152;SDS011;19509;43.862;26.176;2023-03-25T00:56:26;1.40;;;1.40;;
33152;SDS011;19509;43.862;26.176;2023-03-25T00:58:53;1.40;;;1.40;;
33152;SDS011;19509;43.862;26.176;2023-03-25T01:01:20;1.50;;;1.50;;
33152;SDS011;19509;43.862;26.176;2023-03-25T01:03:48;1.60;;;1.60;;
33152;SDS011;19509;43.862;26.176;2023-03-25T01:06:22;1.50;;;1.50;;
33152;SDS011;19509;43.862;26.176;2023-03-25T01:08:53;1.30;;;1.30;;
33152;SDS011;19509;43.862;26.176;2023-03-25T01:11:21;1.40;;;1.40;;
33152;SDS011;19509;43.862;26.176;2023-03-25T01:13:55;1.33;;;1.33;;
33152;SDS011;19509;43.862;26.176;2023-03-25T01:16:23;1.43;;;1.43;;
33152;SDS011;19509;43.862;26.176;2023-03-25T01:18:49;1.20;;;1.20;;
33152;SDS011;19509;43.862;26.176;2023-03-25T01:21:15;1.60;;;1.60;;
33152;SDS011;19509;43.862;26.176;2023-03-25T01:23:41;1.27;;;1.27;;
33152;SDS011;19509;43.862;26.176;2023-03-25T01:26:07;1.40;;;1.33;;
33152;SDS011;19509;43.862;26.176;2023-03-25T01:28:33;1.27;;;1.27;;
33152;SDS011;19509;43.862;26.176;2023-03-25T01:30:59;1.33;;;1.33;;
33152;SDS011;19509;43.862;26.176;2023-03-25T01:33:25;1.30;;;1.30;;
33152;SDS011;19509;43.862;26.176;2023-03-25T01:35:51;1.30;;;1.30;;
33152;SDS011;19509;43.862;26.176;2023-03-25T01:38:17;1.20;;;1.20;;
33152;SDS011;19509;43.862;26.176;2023-03-25T01:40:44;1.37;;;1.37;;
33152;SDS011;19509;43.862;26.176;2023-03-25T01:43:10;1.30;;;1.30;;
33152;SDS011;19509;43.862;26.176;2023-03-25T01:45:37;2.20;;;1.40;;
33152;SDS011;19509;43.862;26.176;2023-03-25T01:50:40;1.27;;;1.27;;
33152;SDS011;19509;43.862;26.176;2023-03-25T01:53:09;1.30;;;1.30;;
33152;SDS011;19509;43.862;26.176;2023-03-25T01:55:35;1.23;;;1.23;;
33152;SDS011;19509;43.862;26.176;2023-03-25T01:58:03;1.50;;;1.50;;
33152;SDS011;19509;43.862;26.176;2023-03-25T02:00:34;1.30;;;1.30;;
33152;SDS011;19509;43.862;26.176;2023-03-25T02:03:01;1.90;;;1.90;;
33152;SDS011;19509;43.862;26.176;2023-03-25T02:05:30;1.70;;;1.70;;
33152;SDS011;19509;43.862;26.176;2023-03-25T02:08:17;1.40;;;1.40;;
33152;SDS011;19509;43.862;26.176;2023-03-25T02:10:45;1.30;;;1.30;;
33152;SDS011;19509;43.862;26.176;2023-03-25T02:13:11;1.30;;;1.30;;
33152;SDS011;19509;43.862;26.176;2023-03-25T02:16:13;1.40;;;1.40;;
33152;SDS011;19509;43.862;26.176;2023-03-25T02:19:15;1.50;;;1.50;;
33152;SDS011;19509;43.862;26.176;2023-03-25T02:35:25;1.47;;;1.47;;
33152;SDS011;19509;43.862;26.176;2023-03-25T02:41:15;1.40;;;1.40;;
33152;SDS011;19509;43.862;26.176;2023-03-25T02:43:52;1.40;;;1.40;;
33152;SDS011;19509;43.862;26.176;2023-03-25T02:46:24;1.50;;;1.50;;
33152;SDS011;19509;43.862;26.176;2023-03-25T02:48:55;1.73;;;1.50;;
33152;SDS011;19509;43.862;26.176;2023-03-25T02:51:47;1.60;;;1.60;;
33152;SDS011;19509;43.862;26.176;2023-03-25T02:54:34;1.50;;;1.50;;
33152;SDS011;19509;43.862;26.176;2023-03-25T02:57:03;1.70;;;1.70;;
33152;SDS011;19509;43.862;26.176;2023-03-25T02:59:31;1.43;;;1.43;;
33152;SDS011;19509;43.862;26.176;2023-03-25T03:02:02;1.27;;;1.27;;
33152;SDS011;19509;43.862;26.176;2023-03-25T03:04:32;1.30;;;1.30;;
33152;SDS011;19509;43.862;26.176;2023-03-25T03:07:10;1.50;;;1.50;;
33152;SDS011;19509;43.862;26.176;2023-03-25T03:09:44;1.30;;;1.30;;
33152;SDS011;19509;43.862;26.176;2023-03-25T03:12:26;1.40;;;1.40;;
33152;SDS011;19509;43.862;26.176;2023-03-25T03:21:01;1.30;;;1.30;;
33152;SDS011;19509;43.862;26.176;2023-03-25T03:23:33;1.37;;;1.37;;
33152;SDS011;19509;43.862;26.176;2023-03-25T03:26:25;1.40;;;1.40;;
33152;SDS011;19509;43.862;26.176;2023-03-25T03:28:57;1.30;;;1.30;;
33152;SDS011;19509;43.862;26.176;2023-03-25T03:34:21;1.30;;;1.30;;
33152;SDS011;19509;43.862;26.176;2023-03-25T03:36:52;1.53;;;1.53;;
33152;SDS011;19509;43.862;26.176;2023-03-25T03:39:54;1.50;;;1.50;;
33152;SDS011;19509;43.862;26.176;2023-03-25T03:42:24;1.53;;;1.53;;
33152;SDS011;19509;43.862;26.176;2023-03-25T03:44:59;1.30;;;1.30;;
33152;SDS011;19509;43.862;26.176;2023-03-25T03:47:31;1.43;;;1.43;;
33152;SDS011;19509;43.862;26.176;2023-03-25T03:50:03;1.20;;;1.20;;
33152;SDS011;19509;43.862;26.176;2023-03-25T03:52:35;1.30;;;1.30;;
33152;SDS011;19509;43.862;26.176;2023-03-25T03:55:30;1.50;;;1.50;;
33152;SDS011;19509;43.862;26.176;2023-03-25T03:58:05;1.20;;;1.20;;
33152;SDS011;19509;43.862;26.176;2023-03-25T04:04:01;1.50;;;1.50;;
33152;SDS011;19509;43.862;26.176;2023-03-25T04:11:46;1.40;;;1.40;;
33152;SDS011;19509;43.862;26.176;2023-03-25T04:14:19;2.10;;;2.10;;
33152;SDS011;19509;43.862;26.176;2023-03-25T04:16:45;5.80;;;5.40;;
33152;SDS011;19509;43.862;26.176;2023-03-25T04:19:11;1.60;;;1.60;;
33152;SDS011;19509;43.862;26.176;2023-03-25T04:21:43;1.20;;;1.20;;
33152;SDS011;19509;43.862;26.176;2023-03-25T04:24:10;1.30;;;1.30;;
33152;SDS011;19509;43.862;26.176;2023-03-25T04:26:36;1.30;;;1.30;;
33152;SDS011;19509;43.862;26.176;2023-03-25T04:29:05;1.40;;;1.40;;
33152;SDS011;19509;43.862;26.176;2023-03-25T04:31:31;1.50;;;1.50;;
33152;SDS011;19509;43.862;26.176;2023-03-25T04:33:57;1.60;;;1.60;;
33152;SDS011;19509;43.862;26.176;2023-03-25T04:36:24;1.50;;;1.50;;
33152;SDS011;19509;43.862;26.176;2023-03-25T04:38:54;2.00;;;2.00;;
33152;SDS011;19509;43.862;26.176;2023-03-25T04:41:20;3.10;;;3.10;;
33152;SDS011;19509;43.862;26.176;2023-03-25T04:43:47;1.87;;;1.87;;
33152;SDS011;19509;43.862;26.176;2023-03-25T04:46:13;1.70;;;1.70;;
33152;SDS011;19509;43.862;26.176;2023-03-25T04:48:40;1.70;;;1.70;;
33152;SDS011;19509;43.862;26.176;2023-03-25T04:51:09;1.33;;;1.33;;
33152;SDS011;19509;43.862;26.176;2023-03-25T04:53:38;1.70;;;1.70;;
33152;SDS011;19509;43.862;26.176;2023-03-25T04:56:05;2.20;;;2.20;;
33152;SDS011;19509;43.862;26.176;2023-03-25T04:58:31;1.50;;;1.50;;
33152;SDS011;19509;43.862;26.176;2023-03-25T05:00:57;1.40;;;1.40;;
33152;SDS011;19509;43.862;26.176;2023-03-25T05:03:30;1.50;;;1.50;;
33152;SDS011;19509;43.862;26.176;2023-03-25T05:05:56;1.60;;;1.60;;
33152;SDS011;19509;43.862;26.176;2023-03-25T05:08:22;1.30;;;1.30;;
33152;SDS011;19509;43.862;26.176;2023-03-25T05:10:47;1.70;;;1.70;;
33152;SDS011;19509;43.862;26.176;2023-03-25T05:13:13;2.73;;;2.73;;
33152;SDS011;19509;43.862;26.176;2023-03-25T05:15:40;1.93;;;1.90;;
33152;SDS011;19509;43.862;26.176;2023-03-25T05:18:09;1.60;;;1.60;;
33152;SDS011;19509;43.862;26.176;2023-03-25T05:20:38;1.80;;;1.80;;
33152;SDS011;19509;43.862;26.176;2023-03-25T05:23:08;1.57;;;1.57;;
33152;SDS011;19509;43.862;26.176;2023-03-25T05:25:45;1.50;;;1.50;;
33152;SDS011;19509;43.862;26.176;2023-03-25T05:28:12;1.73;;;1.73;;
33152;SDS011;19509;43.862;26.176;2023-03-25T05:30:39;2.83;;;2.80;;
33152;SDS011;19509;43.862;26.176;2023-03-25T05:33:06;1.10;;;1.10;;
33152;SDS011;19509;43.862;26.176;2023-03-25T05:35:34;0.93;;;0.93;;
33152;SDS011;19509;43.862;26.176;2023-03-25T05:38:00;0.90;;;0.90;;
33152;SDS011;19509;43.862;26.176;2023-03-25T05:40:26;0.93;;;0.93;;
33152;SDS011;19509;43.862;26.176;2023-03-25T05:42:51;1.10;;;1.10;;
33152;SDS011;19509;43.862;26.176;2023-03-25T05:45:18;1.00;;;1.00;;
33152;SDS011;19509;43.862;26.176;2023-03-25T05:47:44;0.90;;;0.90;;
33152;SDS011;19509;43.862;26.176;2023-03-25T05:50:10;0.80;;;0.80;;
33152;SDS011;19509;43.862;26.176;2023-03-25T05:52:36;0.70;;;0.70;;
33152;SDS011;19509;43.862;26.176;2023-03-25T05:55:02;0.70;;;0.70;;
33152;SDS011;19509;43.862;26.176;2023-03-25T05:57:29;0.80;;;0.80;;
33152;SDS011;19509;43.862;26.176;2023-03-25T05:59:54;0.90;;;0.90;;
33152;SDS011;19509;43.862;26.176;2023-03-25T06:02:20;0.97;;;0.97;;
33152;SDS011;19509;43.862;26.176;2023-03-25T06:04:47;1.00;;;1.00;;
33152;SDS011;19509;43.862;26.176;2023-03-25T06:07:14;1.10;;;1.10;;
33152;SDS011;19509;43.862;26.176;2023-03-25T06:09:46;1.00;;;1.00;;
33152;SDS011;19509;43.862;26.176;2023-03-25T06:12:17;1.80;;;1.80;;
33152;SDS011;19509;43.862;26.176;2023-03-25T06:14:44;1.40;;;1.40;;
33152;SDS011;19509;43.862;26.176;2023-03-25T06:17:11;1.47;;;1.47;;
33152;SDS011;19509;43.862;26.176;2023-03-25T06:19:37;0.93;;;0.93;;
33152;SDS011;19509;43.862;26.176;2023-03-25T06:22:06;1.10;;;1.10;;
33152;SDS011;19509;43.862;26.176;2023-03-25T06:24:34;1.00;;;1.00;;
33152;SDS011;19509;43.862;26.176;2023-03-25T06:27:21;1.00;;;1.00;;
33152;SDS011;19509;43.862;26.176;2023-03-25T06:29:47;0.80;;;0.80;;
33152;SDS011;19509;43.862;26.176;2023-03-25T06:32:13;0.90;;;0.90;;
33152;SDS011;19509;43.862;26.176;2023-03-25T06:34:39;0.90;;;0.90;;
33152;SDS011;19509;43.862;26.176;2023-03-25T06:37:06;0.97;;;0.97;;
33152;SDS011;19509;43.862;26.176;2023-03-25T06:39:32;1.00;;;1.00;;
33152;SDS011;19509;43.862;26.176;2023-03-25T06:42:02;0.90;;;0.90;;
33152;SDS011;19509;43.862;26.176;2023-03-25T06:44:28;0.80;;;0.80;;
33152;SDS011;19509;43.862;26.176;2023-03-25T06:46:54;0.87;;;0.87;;
33152;SDS011;19509;43.862;26.176;2023-03-25T06:49:19;0.90;;;0.90;;
33152;SDS011;19509;43.862;26.176;2023-03-25T06:51:45;0.80;;;0.80;;
33152;SDS011;19509;43.862;26.176;2023-03-25T06:54:11;1.30;;;1.30;;
33152;SDS011;19509;43.862;26.176;2023-03-25T06:56:36;2.33;;;2.33;;
33152;SDS011;19509;43.862;26.176;2023-03-25T06:59:02;1.00;;;1.00;;
33152;SDS011;19509;43.862;26.176;2023-03-25T07:01:28;1.00;;;1.00;;
33152;SDS011;19509;43.862;26.176;2023-03-25T07:03:53;1.83;;;1.83;;
33152;SDS011;19509;43.862;26.176;2023-03-25T07:06:19;0.90;;;0.90;;
33152;SDS011;19509;43.862;26.176;2023-03-25T07:08:46;1.17;;;1.17;;
33152;SDS011;19509;43.862;26.176;2023-03-25T07:11:13;1.07;;;1.07;;
33152;SDS011;19509;43.862;26.176;2023-03-25T07:13:40;0.80;;;0.80;;
33152;SDS011;19509;43.862;26.176;2023-03-25T07:16:24;0.83;;;0.83;;
33152;SDS011;19509;43.862;26.176;2023-03-25T07:18:50;0.90;;;0.90;;
33152;SDS011;19509;43.862;26.176;2023-03-25T07:21:16;0.90;;;0.90;;
33152;SDS011;19509;43.862;26.176;2023-03-25T07:23:42;0.80;;;0.80;;
33152;SDS011;19509;43.862;26.176;2023-03-25T07:26:08;0.90;;;0.90;;
33152;SDS011;19509;43.862;26.176;2023-03-25T07:28:33;0.80;;;0.80;;
33152;SDS011;19509;43.862;26.176;2023-03-25T07:30:59;1.70;;;1.00;;
33152;SDS011;19509;43.862;26.176;2023-03-25T07:33:24;0.73;;;0.73;;
33152;SDS011;19509;43.862;26.176;2023-03-25T07:35:50;0.70;;;0.70;;
33152;SDS011;19509;43.862;26.176;2023-03-25T07:38:16;1.00;;;1.00;;
33152;SDS011;19509;43.862;26.176;2023-03-25T07:40:41;1.00;;;1.00;;
33152;SDS011;19509;43.862;26.176;2023-03-25T07:43:07;0.80;;;0.80;;
33152;SDS011;19509;43.862;26.176;2023-03-25T07:45:32;0.80;;;0.80;;
33152;SDS011;19509;43.862;26.176;2023-03-25T07:48:01;2.67;;;0.70;;
33152;SDS011;19509;43.862;26.176;2023-03-25T07:50:27;0.83;;;0.83;;
33152;SDS011;19509;43.862;26.176;2023-03-25T07:52:53;0.83;;;0.83;;
33152;SDS011;19509;43.862;26.176;2023-03-25T07:55:18;0.70;;;0.70;;
33152;SDS011;19509;43.862;26.176;2023-03-25T07:57:44;1.23;;;0.70;;
33152;SDS011;19509;43.862;26.176;2023-03-25T08:00:10;0.70;;;0.70;;
33152;SDS011;19509;43.862;26.176;2023-03-25T08:02:36;0.70;;;0.70;;
33152;SDS011;19509;43.862;26.176;2023-03-25T08:05:02;0.80;;;0.80;;
33152;SDS011;19509;43.862;26.176;2023-03-25T08:07:27;0.80;;;0.80;;
33152;SDS011;19509;43.862;26.176;2023-03-25T08:09:53;0.90;;;0.90;;
33152;SDS011;19509;43.862;26.176;2023-03-25T08:12:19;1.40;;;1.40;;
33152;SDS011;19509;43.862;26.176;2023-03-25T08:14:45;0.70;;;0.70;;
33152;SDS011;19509;43.862;26.176;2023-03-25T08:17:11;1.17;;;1.03;;
33152;SDS011;19509;43.862;26.176;2023-03-25T08:19:36;1.30;;;1.30;;
33152;SDS011;19509;43.862;26.176;2023-03-25T08:22:02;1.00;;;1.00;;
33152;SDS011;19509;43.862;26.176;2023-03-25T08:24:28;0.90;;;0.90;;
33152;SDS011;19509;43.862;26.176;2023-03-25T08:26:54;0.80;;;0.80;;
33152;SDS011;19509;43.862;26.176;2023-03-25T08:29:20;0.90;;;0.90;;
33152;SDS011;19509;43.862;26.176;2023-03-25T08:31:45;1.00;;;1.00;;
33152;SDS011;19509;43.862;26.176;2023-03-25T08:34:16;0.90;;;0.90;;
33152;SDS011;19509;43.862;26.176;2023-03-25T08:36:43;0.93;;;0.93;;
33152;SDS011;19509;43.862;26.176;2023-03-25T08:39:10;0.97;;;0.97;;
33152;SDS011;19509;43.862;26.176;2023-03-25T08:41:37;1.00;;;1.00;;
33152;SDS011;19509;43.862;26.176;2023-03-25T08:44:04;1.00;;;1.00;;
33152;SDS011;19509;43.862;26.176;2023-03-25T08:46:30;1.00;;;0.87;;
33152;SDS011;19509;43.862;26.176;2023-03-25T08:48:55;0.93;;;0.90;;
33152;SDS011;19509;43.862;26.176;2023-03-25T08:51:21;0.70;;;0.70;;
33152;SDS011;19509;43.862;26.176;2023-03-25T08:53:47;1.23;;;1.00;;
33152;SDS011;19509;43.862;26.176;2023-03-25T08:56:12;0.70;;;0.70;;
33152;SDS011;19509;43.862;26.176;2023-03-25T08:58:38;0.77;;;0.77;;
33152;SDS011;19509;43.862;26.176;2023-03-25T09:01:03;0.70;;;0.67;;
33152;SDS011;19509;43.862;26.176;2023-03-25T09:03:29;0.70;;;0.70;;
33152;SDS011;19509;43.862;26.176;2023-03-25T09:05:55;0.80;;;0.80;;
33152;SDS011;19509;43.862;26.176;2023-03-25T09:08:21;1.03;;;0.90;;
33152;SDS011;19509;43.862;26.176;2023-03-25T09:10:47;0.80;;;0.80;;
33152;SDS011;19509;43.862;26.176;2023-03-25T09:13:12;0.90;;;0.90;;
33152;SDS011;19509;43.862;26.176;2023-03-25T09:15:38;0.60;;;0.60;;
33152;SDS011;19509;43.862;26.176;2023-03-25T09:18:04;0.93;;;0.80;;
33152;SDS011;19509;43.862;26.176;2023-03-25T09:20:30;0.87;;;0.87;;
33152;SDS011;19509;43.862;26.176;2023-03-25T09:22:56;0.90;;;0.90;;
33152;SDS011;19509;43.862;26.176;2023-03-25T09:25:21;1.60;;;0.83;;
33152;SDS011;19509;43.862;26.176;2023-03-25T09:27:47;0.70;;;0.70;;
33152;SDS011;19509;43.862;26.176;2023-03-25T09:30:13;0.60;;;0.60;;
33152;SDS011;19509;43.862;26.176;2023-03-25T09:32:39;1.00;;;0.90;;
33152;SDS011;19509;43.862;26.176;2023-03-25T09:35:05;1.40;;;0.90;;
33152;SDS011;19509;43.862;26.176;2023-03-25T09:37:31;0.80;;;0.80;;
33152;SDS011;19509;43.862;26.176;2023-03-25T09:39:57;0.80;;;0.80;;
33152;SDS011;19509;43.862;26.176;2023-03-25T09:45:29;0.60;;;0.60;;
33152;SDS011;19509;43.862;26.176;2023-03-25T09:50:28;0.77;;;0.77;;
33152;SDS011;19509;43.862;26.176;2023-03-25T09:55:46;1.70;;;0.80;;
33152;SDS011;19509;43.862;26.176;2023-03-25T10:00:44;2.67;;;0.70;;
33152;SDS011;19509;43.862;26.176;2023-03-25T10:03:23;0.70;;;0.70;;
33152;SDS011;19509;43.862;26.176;2023-03-25T10:14:26;0.70;;;0.70;;
33152;SDS011;19509;43.862;26.176;2023-03-25T10:19:45;0.80;;;0.80;;
33152;SDS011;19509;43.862;26.176;2023-03-25T10:22:25;0.67;;;0.67;;
33152;SDS011;19509;43.862;26.176;2023-03-25T10:27:31;0.70;;;0.70;;
33152;SDS011;19509;43.862;26.176;2023-03-25T10:30:00;0.70;;;0.70;;
33152;SDS011;19509;43.862;26.176;2023-03-25T10:32:36;0.60;;;0.60;;
33152;SDS011;19509;43.862;26.176;2023-03-25T10:35:06;0.70;;;0.70;;
33152;SDS011;19509;43.862;26.176;2023-03-25T10:37:40;0.67;;;0.67;;
33152;SDS011;19509;43.862;26.176;2023-03-25T10:43:44;0.70;;;0.70;;
33152;SDS011;19509;43.862;26.176;2023-03-25T10:45:47;0.70;;;0.70;;
33152;SDS011;19509;43.862;26.176;2023-03-25T10:48:28;0.50;;;0.50;;
33152;SDS011;19509;43.862;26.176;2023-03-25T10:51:08;0.70;;;0.70;;
33152;SDS011;19509;43.862;26.176;2023-03-25T10:53:36;0.67;;;0.67;;
33152;SDS011;19509;43.862;26.176;2023-03-25T10:56:06;0.60;;;0.60;;
33152;SDS011;19509;43.862;26.176;2023-03-25T10:58:44;0.70;;;0.70;;
33152;SDS011;19509;43.862;26.176;2023-03-25T11:01:13;0.83;;;0.70;;
33152;SDS011;19509;43.862;26.176;2023-03-25T11:03:41;0.70;;;0.70;;
33152;SDS011;19509;43.862;26.176;2023-03-25T11:06:30;0.70;;;0.70;;
33152;SDS011;19509;43.862;26.176;2023-03-25T11:09:12;0.80;;;0.80;;
33152;SDS011;19509;43.862;26.176;2023-03-25T11:11:40;0.77;;;0.77;;
33152;SDS011;19509;43.862;26.176;2023-03-25T11:14:07;0.93;;;0.70;;
33152;SDS011;19509;43.862;26.176;2023-03-25T11:19:25;0.80;;;0.80;;
33152;SDS011;19509;43.862;26.176;2023-03-25T11:22:07;0.60;;;0.60;;
33152;SDS011;19509;43.862;26.176;2023-03-25T11:24:41;0.67;;;0.67;;
33152;SDS011;19509;43.862;26.176;2023-03-25T11:27:08;0.90;;;0.90;;
33152;SDS011;19509;43.862;26.176;2023-03-25T11:29:34;0.73;;;0.73;;
33152;SDS011;19509;43.862;26.176;2023-03-25T11:32:12;0.77;;;0.70;;
33152;SDS011;19509;43.862;26.176;2023-03-25T11:34:40;0.80;;;0.80;;
33152;SDS011;19509;43.862;26.176;2023-03-25T11:39:47;0.60;;;0.60;;
33152;SDS011;19509;43.862;26.176;2023-03-25T11:44:41;0.70;;;0.70;;
33152;SDS011;19509;43.862;26.176;2023-03-25T11:47:14;1.03;;;0.80;;
33152;SDS011;19509;43.862;26.176;2023-03-25T11:49:47;0.60;;;0.60;;
33152;SDS011;19509;43.862;26.176;2023-03-25T11:52:16;0.70;;;0.70;;
33152;SDS011;19509;43.862;26.176;2023-03-25T11:54:45;0.67;;;0.67;;
33152;SDS011;19509;43.862;26.176;2023-03-25T11:57:12;0.70;;;0.70;;
33152;SDS011;19509;43.862;26.176;2023-03-25T11:59:44;0.87;;;0.70;;
33152;SDS011;19509;43.862;26.176;2023-03-25T12:02:20;1.07;;;0.60;;
33152;SDS011;19509;43.862;26.176;2023-03-25T12:05:01;0.60;;;0.60;;
33152;SDS011;19509;43.862;26.176;2023-03-25T12:07:40;0.63;;;0.63;;
33152;SDS011;19509;43.862;26.176;2023-03-25T12:10:17;0.57;;;0.57;;
33152;SDS011;19509;43.862;26.176;2023-03-25T12:12:54;0.50;;;0.50;;
33152;SDS011;19509;43.862;26.176;2023-03-25T12:15:35;0.57;;;0.57;;
33152;SDS011;19509;43.862;26.176;2023-03-25T12:26:23;0.70;;;0.70;;
33152;SDS011;19509;43.862;26.176;2023-03-25T12:37:30;0.63;;;0.63;;
33152;SDS011;19509;43.862;26.176;2023-03-25T12:41:27;0.60;;;0.60;;
33152;SDS011;19509;43.862;26.176;2023-03-25T12:43:28;0.60;;;0.60;;
33152;SDS011;19509;43.862;26.176;2023-03-25T12:51:41;1.27;;;1.27;;
33152;SDS011;19509;43.862;26.176;2023-03-25T13:02:40;0.63;;;0.63;;
33152;SDS011;19509;43.862;26.176;2023-03-25T13:05:32;0.60;;;0.60;;
33152;SDS011;19509;43.862;26.176;2023-03-25T13:08:07;0.60;;;0.60;;
33152;SDS011;19509;43.862;26.176;2023-03-25T13:10:38;0.57;;;0.57;;
33152;SDS011;19509;43.862;26.176;2023-03-25T13:13:14;0.70;;;0.70;;
33152;SDS011;19509;43.862;26.176;2023-03-25T13:15:45;0.60;;;0.60;;
33152;SDS011;19509;43.862;26.176;2023-03-25T13:18:17;0.60;;;0.60;;
33152;SDS011;19509;43.862;26.176;2023-03-25T13:20:47;0.70;;;0.70;;
33152;SDS011;19509;43.862;26.176;2023-03-25T13:23:24;0.70;;;0.70;;
33152;SDS011;19509;43.862;26.176;2023-03-25T13:25:58;0.70;;;0.70;;
33152;SDS011;19509;43.862;26.176;2023-03-25T13:28:46;0.50;;;0.50;;
33152;SDS011;19509;43.862;26.176;2023-03-25T13:31:16;0.67;;;0.67;;
33152;SDS011;19509;43.862;26.176;2023-03-25T13:33:49;0.63;;;0.63;;
33152;SDS011;19509;43.862;26.176;2023-03-25T13:36:28;0.60;;;0.60;;
33152;SDS011;19509;43.862;26.176;2023-03-25T13:39:00;0.60;;;0.60;;
33152;SDS011;19509;43.862;26.176;2023-03-25T13:41:41;0.77;;;0.63;;
33152;SDS011;19509;43.862;26.176;2023-03-25T13:44:13;0.70;;;0.70;;
33152;SDS011;19509;43.862;26.176;2023-03-25T13:52:17;0.77;;;0.77;;
33152;SDS011;19509;43.862;26.176;2023-03-25T13:54:46;0.80;;;0.80;;
33152;SDS011;19509;43.862;26.176;2023-03-25T14:05:38;1.03;;;0.70;;
33152;SDS011;19509;43.862;26.176;2023-03-25T14:13:24;0.60;;;0.60;;
33152;SDS011;19509;43.862;26.176;2023-03-25T14:16:01;0.63;;;0.63;;
33152;SDS011;19509;43.862;26.176;2023-03-25T14:18:31;0.60;;;0.60;;
33152;SDS011;19509;43.862;26.176;2023-03-25T14:21:30;0.60;;;0.60;;
33152;SDS011;19509;43.862;26.176;2023-03-25T14:26:35;0.60;;;0.60;;
33152;SDS011;19509;43.862;26.176;2023-03-25T14:29:10;0.80;;;0.80;;
33152;SDS011;19509;43.862;26.176;2023-03-25T14:34:34;0.70;;;0.70;;
33152;SDS011;19509;43.862;26.176;2023-03-25T14:44:28;0.60;;;0.60;;
33152;SDS011;19509;43.862;26.176;2023-03-25T14:49:50;0.70;;;0.70;;
33152;SDS011;19509;43.862;26.176;2023-03-25T14:52:35;0.70;;;0.70;;
33152;SDS011;19509;43.862;26.176;2023-03-25T14:55:14;0.87;;;0.87;;
33152;SDS011;19509;43.862;26.176;2023-03-25T14:57:47;0.70;;;0.70;;
33152;SDS011;19509;43.862;26.176;2023-03-25T15:00:25;0.90;;;0.90;;
33152;SDS011;19509;43.862;26.176;2023-03-25T15:03:04;0.70;;;0.70;;
33152;SDS011;19509;43.862;26.176;2023-03-25T15:05:36;0.70;;;0.70;;
33152;SDS011;19509;43.862;26.176;2023-03-25T15:08:14;0.70;;;0.70;;
33152;SDS011;19509;43.862;26.176;2023-03-25T15:10:48;0.70;;;0.70;;
33152;SDS011;19509;43.862;26.176;2023-03-25T15:13:27;0.90;;;0.90;;
33152;SDS011;19509;43.862;26.176;2023-03-25T15:16:15;0.80;;;0.80;;
33152;SDS011;19509;43.862;26.176;2023-03-25T15:21:11;0.60;;;0.60;;
33152;SDS011;19509;43.862;26.176;2023-03-25T15:23:51;0.90;;;0.90;;
33152;SDS011;19509;43.862;26.176;2023-03-25T15:37:16;0.70;;;0.70;;
33152;SDS011;19509;43.862;26.176;2023-03-25T15:39:59;0.90;;;0.90;;
33152;SDS011;19509;43.862;26.176;2023-03-25T15:42:38;0.90;;;0.90;;
33152;SDS011;19509;43.862;26.176;2023-03-25T15:45:19;0.87;;;0.87;;
33152;SDS011;19509;43.862;26.176;2023-03-25T15:56:59;0.90;;;0.90;;
33152;SDS011;19509;43.862;26.176;2023-03-25T16:02:22;0.80;;;0.80;;
33152;SDS011;19509;43.862;26.176;2023-03-25T16:04:52;1.13;;;0.90;;
33152;SDS011;19509;43.862;26.176;2023-03-25T16:07:19;0.80;;;0.80;;
33152;SDS011;19509;43.862;26.176;2023-03-25T16:09:48;0.83;;;0.83;;
33152;SDS011;19509;43.862;26.176;2023-03-25T16:12:24;0.93;;;0.80;;
33152;SDS011;19509;43.862;26.176;2023-03-25T16:14:50;0.80;;;0.80;;
33152;SDS011;19509;43.862;26.176;2023-03-25T16:17:17;1.03;;;1.03;;
33152;SDS011;19509;43.862;26.176;2023-03-25T16:19:55;0.90;;;0.90;;
33152;SDS011;19509;43.862;26.176;2023-03-25T16:22:26;0.73;;;0.73;;
33152;SDS011;19509;43.862;26.176;2023-03-25T16:24:57;0.70;;;0.70;;
33152;SDS011;19509;43.862;26.176;2023-03-25T16:27:30;0.80;;;0.80;;
33152;SDS011;19509;43.862;26.176;2023-03-25T16:30:01;0.90;;;0.90;;
33152;SDS011;19509;43.862;26.176;2023-03-25T16:32:33;0.90;;;0.90;;
33152;SDS011;19509;43.862;26.176;2023-03-25T16:34:59;1.47;;;1.20;;
33152;SDS011;19509;43.862;26.176;2023-03-25T16:37:25;1.10;;;1.10;;
33152;SDS011;19509;43.862;26.176;2023-03-25T16:39:52;1.27;;;1.10;;
33152;SDS011;19509;43.862;26.176;2023-03-25T16:42:30;1.27;;;1.27;;
33152;SDS011;19509;43.862;26.176;2023-03-25T16:44:58;1.20;;;1.20;;
33152;SDS011;19509;43.862;26.176;2023-03-25T16:47:25;1.00;;;1.00;;
33152;SDS011;19509;43.862;26.176;2023-03-25T16:49:52;1.27;;;1.27;;
33152;SDS011;19509;43.862;26.176;2023-03-25T16:52:31;0.90;;;0.90;;
33152;SDS011;19509;43.862;26.176;2023-03-25T16:57:24;2.83;;;1.10;;
33152;SDS011;19509;43.862;26.176;2023-03-25T16:59:52;1.77;;;1.67;;
33152;SDS011;19509;43.862;26.176;2023-03-25T17:02:27;2.10;;;2.10;;
33152;SDS011;19509;43.862;26.176;2023-03-25T17:08:02;4.30;;;4.20;;
33152;SDS011;19509;43.862;26.176;2023-03-25T17:10:32;11.00;;;10.40;;
33152;SDS011;19509;43.862;26.176;2023-03-25T17:13:13;3.10;;;3.00;;
33152;SDS011;19509;43.862;26.176;2023-03-25T17:15:45;1.40;;;1.40;;
33152;SDS011;19509;43.862;26.176;2023-03-25T17:18:13;1.53;;;1.20;;
33152;SDS011;19509;43.862;26.176;2023-03-25T17:20:41;1.20;;;1.20;;
33152;SDS011;19509;43.862;26.176;2023-03-25T17:31:25;2.93;;;2.83;;
33152;SDS011;19509;43.862;26.176;2023-03-25T17:33:59;3.50;;;3.40;;
33152;SDS011;19509;43.862;26.176;2023-03-25T17:36:29;3.60;;;3.50;;
33152;SDS011;19509;43.862;26.176;2023-03-25T17:38:55;7.67;;;7.37;;
33152;SDS011;19509;43.862;26.176;2023-03-25T17:41:37;5.23;;;5.13;;
33152;SDS011;19509;43.862;26.176;2023-03-25T17:44:04;1.40;;;1.40;;
33152;SDS011;19509;43.862;26.176;2023-03-25T17:46:30;1.73;;;1.60;;
33152;SDS011;19509;43.862;26.176;2023-03-25T17:48:57;1.90;;;1.80;;
33152;SDS011;19509;43.862;26.176;2023-03-25T17:51:24;1.70;;;1.70;;